Time;durP1;ratioP1;P1;durP2;ratioP2;P2;SDS_P1;SDS_P2;PMS_P1;PMS_P2;Temp;Humidity;BMP_temperature;BMP_pressure;BME280_temperature;BME280_humidity;BME280_pressure;Samples;Min_cycle;Max_cycle;Signal;HPM_P1;HPM_P2
2023/04/04 00:00:24;;;;;;;2.80;1.40;;;1.80;99.00;;;;;;5095908;28;20201;-57
2023/04/04 00:02:51;;;;;;;2.43;1.20;;;1.70;99.00;;;;;;5095814;28;20220;-57
2023/04/04 00:05:18;;;;;;;4.70;1.37;;;1.70;99.10;;;;;;5095719;28;20208;-57
2023/04/04 00:07:46;;;;;;;1.93;1.33;;;1.70;99.10;;;;;;5096735;28;20220;-57
2023/04/04 00:10:14;;;;;;;3.97;1.57;;;1.70;99.10;;;;;;5095488;28;20205;-58
2023/04/04 00:12:41;;;;;;;4.73;1.77;;;1.70;98.90;;;;;;5094658;28;20204;-58
2023/04/04 00:15:10;;;;;;;2.60;1.43;;;1.70;98.60;;;;;;5094757;28;20204;-58
2023/04/04 00:17:36;;;;;;;2.17;1.50;;;1.70;98.70;;;;;;5094648;28;20227;-58
2023/04/04 00:20:03;;;;;;;3.20;1.30;;;1.70;98.70;;;;;;5095057;28;20207;-58
2023/04/04 00:22:30;;;;;;;2.67;1.50;;;1.70;98.70;;;;;;5095260;28;20573;-58
2023/04/04 00:24:57;;;;;;;4.70;1.60;;;1.70;98.80;;;;;;5095174;28;20210;-58
2023/04/04 00:27:25;;;;;;;3.13;1.90;;;1.70;98.80;;;;;;5095041;28;20228;-58
2023/04/04 00:29:52;;;;;;;2.13;1.40;;;1.60;99.00;;;;;;5095840;28;20682;-58
2023/04/04 00:32:19;;;;;;;3.33;1.47;;;1.60;99.00;;;;;;5094925;28;20200;-58
2023/04/04 00:34:46;;;;;;;2.13;1.50;;;1.50;98.90;;;;;;5095266;28;20220;-58
2023/04/04 00:37:12;;;;;;;3.47;1.63;;;1.50;99.10;;;;;;5095380;28;20224;-58
2023/04/04 00:39:39;;;;;;;2.37;1.40;;;1.50;99.30;;;;;;5094401;28;20204;-58
2023/04/04 00:42:07;;;;;;;2.83;1.43;;;1.40;99.60;;;;;;5094923;28;20224;-58
2023/04/04 00:44:35;;;;;;;3.37;1.40;;;1.40;99.80;;;;;;5094833;28;20200;-58
2023/04/04 00:47:02;;;;;;;2.03;1.53;;;1.30;99.90;;;;;;5095277;28;20227;-58
2023/04/04 00:49:29;;;;;;;3.67;1.57;;;1.30;99.90;;;;;;5094823;28;20231;-59
2023/04/04 00:51:56;;;;;;;3.00;1.43;;;1.20;99.90;;;;;;5095533;28;20708;-58
2023/04/04 00:54:23;;;;;;;3.43;1.60;;;1.30;99.90;;;;;;5094587;28;20242;-58
2023/04/04 00:56:53;;;;;;;3.83;1.47;;;1.30;99.90;;;;;;5094577;28;20606;-59
2023/04/04 00:59:21;;;;;;;2.83;1.60;;;1.30;99.90;;;;;;5094615;28;20208;-58
2023/04/04 01:01:49;;;;;;;2.77;1.73;;;1.40;99.90;;;;;;5094133;28;20561;-58
2023/04/04 01:04:17;;;;;;;4.43;2.03;;;1.40;99.90;;;;;;5095091;28;20207;-59
2023/04/04 01:06:44;;;;;;;2.20;1.37;;;1.30;99.90;;;;;;5095617;28;20279;-58
2023/04/04 01:09:11;;;;;;;2.40;1.60;;;1.30;99.90;;;;;;5094771;28;20212;-58
2023/04/04 01:11:38;;;;;;;2.97;1.77;;;1.40;99.90;;;;;;5097181;28;20215;-58
2023/04/04 01:14:05;;;;;;;2.77;1.70;;;1.40;99.80;;;;;;5096399;28;20275;-58
2023/04/04 01:16:33;;;;;;;3.63;1.60;;;1.40;99.80;;;;;;5094121;28;20209;-58
2023/04/04 01:19:36;;;;;;;3.00;1.70;;;1.40;99.60;;;;;;5094628;28;20638;-58
2023/04/04 01:22:04;;;;;;;2.33;1.60;;;1.40;99.50;;;;;;5094217;28;20272;-58
2023/04/04 01:24:33;;;;;;;2.70;1.60;;;1.40;99.70;;;;;;5093903;28;20215;-58
2023/04/04 01:27:01;;;;;;;2.97;1.80;;;1.40;99.60;;;;;;5094371;28;20243;-58
2023/04/04 01:29:28;;;;;;;3.87;1.73;;;1.40;99.70;;;;;;5095945;28;20204;-59
2023/04/04 01:32:00;;;;;;;3.43;1.80;;;1.30;99.80;;;;;;5097384;28;20204;-58
2023/04/04 01:34:32;;;;;;;3.20;1.87;;;1.30;99.90;;;;;;5095403;28;20200;-58
2023/04/04 01:37:06;;;;;;;6.20;1.80;;;1.30;99.90;;;;;;5094157;28;20275;-58
2023/04/04 01:39:39;;;;;;;2.70;1.87;;;1.20;99.90;;;;;;5094656;28;20215;-58
2023/04/04 01:42:09;;;;;;;2.77;1.50;;;1.30;99.90;;;;;;5093431;28;20700;-58
2023/04/04 01:44:36;;;;;;;3.27;1.63;;;1.20;99.90;;;;;;5095776;28;20596;-59
2023/04/04 01:47:07;;;;;;;4.37;1.67;;;1.20;99.90;;;;;;5094660;28;20220;-58
2023/04/04 01:49:34;;;;;;;3.20;1.60;;;1.20;99.90;;;;;;5094328;28;20212;-59
2023/04/04 01:52:01;;;;;;;4.50;1.67;;;1.20;99.90;;;;;;5093646;28;20209;-58
2023/04/04 01:54:28;;;;;;;2.83;1.73;;;1.20;99.90;;;;;;5093431;28;20201;-58
2023/04/04 01:56:56;;;;;;;3.70;1.63;;;1.20;99.90;;;;;;5094369;28;20232;-58
2023/04/04 01:59:24;;;;;;;2.60;1.60;;;1.20;99.90;;;;;;5093753;28;20273;-59
2023/04/04 02:01:51;;;;;;;2.67;1.50;;;1.20;99.90;;;;;;5093785;28;20208;-60
2023/04/04 02:04:18;;;;;;;3.60;1.40;;;1.20;99.90;;;;;;5093662;28;20203;-58
2023/04/04 02:06:45;;;;;;;2.90;1.40;;;1.20;99.90;;;;;;5093796;28;20228;-58
2023/04/04 02:09:11;;;;;;;3.40;1.63;;;1.20;99.90;;;;;;5094676;28;20647;-59
2023/04/04 02:11:38;;;;;;;2.70;1.90;;;1.20;99.90;;;;;;5097423;28;20295;-58
2023/04/04 02:14:05;;;;;;;3.00;1.67;;;1.10;99.90;;;;;;5097485;28;20211;-58
2023/04/04 02:16:33;;;;;;;4.10;1.73;;;1.10;99.90;;;;;;5097645;28;20668;-58
2023/04/04 02:19:00;;;;;;;3.10;1.80;;;1.10;99.90;;;;;;5097766;28;20208;-58
2023/04/04 02:21:26;;;;;;;2.93;1.90;;;1.20;99.90;;;;;;5097590;28;20295;-58
2023/04/04 02:23:53;;;;;;;3.60;1.50;;;1.10;99.90;;;;;;5096930;28;20220;-58
2023/04/04 02:26:20;;;;;;;3.60;1.90;;;1.20;99.90;;;;;;5097594;28;20675;-58
2023/04/04 02:28:47;;;;;;;2.20;1.60;;;1.20;99.90;;;;;;5097236;28;20205;-58
2023/04/04 02:31:13;;;;;;;4.77;1.57;;;1.20;99.90;;;;;;5097647;28;20208;-58
2023/04/04 02:33:41;;;;;;;2.10;1.80;;;1.20;99.90;;;;;;5096628;28;20693;-59
2023/04/04 02:36:08;;;;;;;3.87;1.93;;;1.20;99.90;;;;;;5096894;28;20212;-59
2023/04/04 02:38:35;;;;;;;2.87;1.90;;;1.10;99.90;;;;;;5096964;28;20235;-58
2023/04/04 02:41:02;;;;;;;4.43;2.10;;;1.20;99.90;;;;;;5096912;28;20215;-57
2023/04/04 02:43:29;;;;;;;4.50;1.70;;;1.20;99.90;;;;;;5096991;28;20228;-58
2023/04/04 02:45:55;;;;;;;2.43;2.00;;;1.20;99.90;;;;;;5097388;28;20291;-58
2023/04/04 02:48:23;;;;;;;3.47;1.80;;;1.20;99.90;;;;;;5096986;28;20239;-58
2023/04/04 02:50:51;;;;;;;7.03;3.13;;;1.10;99.90;;;;;;5096740;28;20304;-58
2023/04/04 02:53:17;;;;;;;5.60;2.00;;;1.10;99.90;;;;;;5096563;28;20287;-58
2023/04/04 02:55:45;;;;;;;2.90;1.97;;;1.10;99.90;;;;;;5096820;28;20215;-58
2023/04/04 02:58:12;;;;;;;3.03;1.90;;;1.10;99.90;;;;;;5096961;28;20228;-58
2023/04/04 03:00:38;;;;;;;3.60;1.90;;;1.10;99.90;;;;;;5096918;28;20200;-58
2023/04/04 03:03:06;;;;;;;2.77;1.70;;;1.00;99.90;;;;;;5096897;28;20231;-57
2023/04/04 03:05:33;;;;;;;3.20;1.90;;;1.00;99.90;;;;;;5096830;28;20633;-57
2023/04/04 03:08:01;;;;;;;3.30;2.00;;;1.00;99.90;;;;;;5096496;28;20231;-57
2023/04/04 03:10:29;;;;;;;7.93;5.00;;;1.00;99.90;;;;;;5096778;28;20219;-57
2023/04/04 03:12:56;;;;;;;5.13;2.73;;;1.00;99.90;;;;;;5096641;28;20200;-58
2023/04/04 03:15:23;;;;;;;2.93;2.13;;;1.00;99.90;;;;;;5096833;28;20663;-58
2023/04/04 03:17:50;;;;;;;2.63;1.80;;;1.00;99.90;;;;;;5096973;28;20224;-57
2023/04/04 03:20:17;;;;;;;4.60;2.00;;;1.00;99.90;;;;;;5096903;28;20271;-58
2023/04/04 03:22:44;;;;;;;3.13;2.67;;;0.90;99.90;;;;;;5096365;28;20256;-57
2023/04/04 03:25:12;;;;;;;4.70;2.20;;;0.90;99.90;;;;;;5096717;28;20276;-59
2023/04/04 03:27:39;;;;;;;5.67;1.93;;;0.90;99.90;;;;;;5096304;28;20245;-58
2023/04/04 03:30:07;;;;;;;5.47;2.20;;;0.90;99.90;;;;;;5096537;28;20261;-58
2023/04/04 03:32:35;;;;;;;25.10;15.93;;;0.80;99.90;;;;;;5096112;28;20206;-58
2023/04/04 03:35:02;;;;;;;8.90;6.00;;;0.80;99.90;;;;;;5095736;28;20259;-58
2023/04/04 03:37:29;;;;;;;9.13;5.33;;;0.80;99.90;;;;;;5095789;28;20239;-58
2023/04/04 03:39:56;;;;;;;14.33;6.60;;;0.80;99.90;;;;;;5095954;28;20205;-58
2023/04/04 03:42:25;;;;;;;6.20;3.13;;;0.80;99.90;;;;;;5095985;28;20264;-58
2023/04/04 03:44:52;;;;;;;3.47;2.50;;;0.80;99.90;;;;;;5096445;28;20243;-58
2023/04/04 03:47:19;;;;;;;6.20;3.03;;;0.80;99.90;;;;;;5095627;28;20224;-58
2023/04/04 03:49:46;;;;;;;5.63;2.50;;;0.80;99.90;;;;;;5095499;28;20261;-58
2023/04/04 03:52:13;;;;;;;3.93;2.10;;;0.70;99.90;;;;;;5095669;28;20416;-58
2023/04/04 03:54:40;;;;;;;2.73;2.03;;;0.70;99.90;;;;;;5095502;28;20211;-58
2023/04/04 03:57:07;;;;;;;3.30;2.37;;;0.60;99.90;;;;;;5095183;28;20269;-59
2023/04/04 03:59:35;;;;;;;12.57;6.87;;;0.60;99.90;;;;;;5095382;28;20200;-60
2023/04/04 04:02:02;;;;;;;6.77;2.73;;;0.70;99.90;;;;;;5095478;28;20215;-60
2023/04/04 04:04:29;;;;;;;19.17;9.83;;;0.70;99.90;;;;;;5095411;28;20235;-58
2023/04/04 04:06:56;;;;;;;3.67;2.87;;;0.70;99.90;;;;;;5094976;28;20228;-58
2023/04/04 04:09:22;;;;;;;3.67;2.63;;;0.60;99.90;;;;;;5095498;28;20208;-58
2023/04/04 04:11:49;;;;;;;7.03;3.10;;;0.70;99.90;;;;;;5095322;28;20204;-58
2023/04/04 04:14:16;;;;;;;4.57;2.23;;;0.60;99.90;;;;;;5094230;28;20581;-59
2023/04/04 04:16:44;;;;;;;2.87;2.17;;;0.60;99.90;;;;;;5094170;28;20293;-59
2023/04/04 04:19:11;;;;;;;4.60;2.47;;;0.60;99.90;;;;;;5095060;28;20203;-59
2023/04/04 04:21:38;;;;;;;4.47;2.43;;;0.60;99.90;;;;;;5095559;28;20218;-60
2023/04/04 04:24:06;;;;;;;2.90;2.40;;;0.50;99.90;;;;;;5094471;28;20704;-58
2023/04/04 04:26:33;;;;;;;3.47;2.40;;;0.50;99.90;;;;;;5094559;28;20208;-60
2023/04/04 04:28:59;;;;;;;4.00;2.53;;;0.50;99.90;;;;;;5095039;28;20200;-60
2023/04/04 04:31:26;;;;;;;3.30;2.30;;;0.50;99.90;;;;;;5094354;28;20227;-60
2023/04/04 04:33:54;;;;;;;9.90;4.77;;;0.50;99.90;;;;;;5094903;28;20270;-60
2023/04/04 04:36:21;;;;;;;3.93;2.37;;;0.50;99.90;;;;;;5095318;28;20550;-59
2023/04/04 04:38:48;;;;;;;6.73;3.93;;;0.50;99.90;;;;;;5095561;28;20204;-59
2023/04/04 04:41:15;;;;;;;5.80;2.90;;;0.50;99.90;;;;;;5094996;28;20219;-59
2023/04/04 04:43:41;;;;;;;7.43;4.87;;;0.50;99.90;;;;;;5094952;28;20703;-58
2023/04/04 04:46:08;;;;;;;4.63;2.73;;;0.50;99.90;;;;;;5094778;28;20200;-58
2023/04/04 04:48:35;;;;;;;4.20;2.83;;;0.60;99.90;;;;;;5094882;28;20311;-58
2023/04/04 04:51:04;;;;;;;5.83;3.50;;;0.50;99.90;;;;;;5095172;28;20212;-58
2023/04/04 04:53:31;;;;;;;7.70;3.70;;;0.50;99.90;;;;;;5094591;28;20207;-59
2023/04/04 04:55:58;;;;;;;10.67;6.20;;;0.60;99.90;;;;;;5094508;28;20204;-58
2023/04/04 04:58:25;;;;;;;9.53;4.10;;;0.60;99.90;;;;;;5094652;28;20273;-59
2023/04/04 05:00:55;;;;;;;9.70;5.03;;;0.60;99.90;;;;;;5094038;28;20212;-59
2023/04/04 05:03:22;;;;;;;5.07;3.60;;;0.60;99.90;;;;;;5094210;28;20216;-58
2023/04/04 05:05:48;;;;;;;6.60;3.77;;;0.60;99.90;;;;;;5094018;28;20211;-59
2023/04/04 05:08:16;;;;;;;3.40;2.40;;;0.70;99.90;;;;;;5093933;28;20583;-58
2023/04/04 05:10:43;;;;;;;5.20;2.80;;;0.60;99.90;;;;;;5094263;28;20208;-58
2023/04/04 05:13:10;;;;;;;4.00;2.30;;;0.60;99.90;;;;;;5094261;28;20204;-58
2023/04/04 05:15:37;;;;;;;4.57;2.53;;;0.70;99.90;;;;;;5094930;28;20209;-59
2023/04/04 05:18:04;;;;;;;5.03;2.53;;;0.70;99.90;;;;;;5094352;28;20674;-58
2023/04/04 05:20:30;;;;;;;5.70;3.00;;;0.70;99.90;;;;;;5094441;28;20200;-58
2023/04/04 05:22:57;;;;;;;3.83;2.50;;;0.70;99.90;;;;;;5093875;28;20258;-58
2023/04/04 05:25:26;;;;;;;3.97;2.63;;;0.80;99.90;;;;;;5093962;28;20231;-58
2023/04/04 05:27:54;;;;;;;3.63;2.23;;;0.70;99.90;;;;;;5093825;28;20252;-58
2023/04/04 05:30:21;;;;;;;2.83;2.00;;;0.80;99.90;;;;;;5094662;28;20694;-57
2023/04/04 05:32:48;;;;;;;6.73;2.60;;;0.80;99.90;;;;;;5094503;28;20465;-57
2023/04/04 05:35:14;;;;;;;4.80;2.77;;;0.80;99.90;;;;;;5094394;28;20197;-57
2023/04/04 05:37:41;;;;;;;6.67;2.33;;;0.90;99.90;;;;;;5093929;28;20259;-57
2023/04/04 05:40:09;;;;;;;3.77;2.33;;;0.80;99.90;;;;;;5094314;28;20393;-57
2023/04/04 05:42:37;;;;;;;4.67;2.53;;;0.90;99.90;;;;;;5094207;28;20210;-58
2023/04/04 05:45:05;;;;;;;3.87;2.60;;;0.90;99.90;;;;;;5093191;28;20859;-59
2023/04/04 05:47:32;;;;;;;4.10;2.53;;;1.00;99.90;;;;;;5093560;28;20220;-59
2023/04/04 05:49:58;;;;;;;4.97;2.30;;;1.00;99.90;;;;;;5093497;28;20709;-58
2023/04/04 05:52:25;;;;;;;5.13;2.43;;;1.20;99.90;;;;;;5093752;28;20606;-58
2023/04/04 05:54:52;;;;;;;3.93;2.47;;;1.90;99.90;;;;;;5093797;28;20200;-58
2023/04/04 05:57:19;;;;;;;6.50;2.60;;;3.40;99.90;;;;;;5093692;28;20262;-58
2023/04/04 05:59:47;;;;;;;7.60;2.50;;;5.20;98.60;;;;;;5094170;28;20204;-58
2023/04/04 06:02:13;;;;;;;3.07;2.10;;;6.90;96.80;;;;;;5094315;28;20212;-58
2023/04/04 06:04:40;;;;;;;3.80;1.93;;;8.40;94.00;;;;;;5094239;28;20231;-58
2023/04/04 06:07:07;;;;;;;3.27;1.90;;;9.60;92.20;;;;;;5093840;28;20224;-58
2023/04/04 06:09:35;;;;;;;3.03;1.70;;;10.60;89.30;;;;;;5093576;28;20201;-58
2023/04/04 06:12:03;;;;;;;4.37;2.20;;;11.30;85.60;;;;;;5093593;28;20605;-60
2023/04/04 06:14:30;;;;;;;2.47;1.80;;;11.90;83.10;;;;;;5093169;28;20196;-61
2023/04/04 06:16:58;;;;;;;3.97;2.10;;;12.50;80.30;;;;;;5092953;28;20255;-59
2023/04/04 06:19:25;;;;;;;4.97;2.00;;;13.00;79.10;;;;;;5093387;28;20294;-59
2023/04/04 06:21:52;;;;;;;4.07;2.43;;;13.50;76.20;;;;;;5093113;28;20205;-59
2023/04/04 06:24:19;;;;;;;5.93;2.20;;;13.60;73.70;;;;;;5092525;28;20227;-59
2023/04/04 06:26:50;;;;;;;3.07;1.90;;;13.50;74.90;;;;;;5092948;28;20232;-60
2023/04/04 06:29:16;;;;;;;3.33;1.80;;;14.40;73.60;;;;;;5093043;28;20204;-60
2023/04/04 06:31:43;;;;;;;5.93;1.90;;;15.30;68.70;;;;;;5093231;28;20200;-60
2023/04/04 06:34:11;;;;;;;4.80;1.90;;;16.10;68.10;;;;;;5093357;28;20576;-60
2023/04/04 06:36:38;;;;;;;4.33;1.77;;;17.10;65.00;;;;;;5092951;28;20241;-60
2023/04/04 06:39:05;;;;;;;3.85;2.03;;;17.70;61.80;;;;;;5093076;28;20215;-60
2023/04/04 06:41:31;;;;;;;3.33;1.90;;;18.00;58.50;;;;;;5093379;28;20242;-60
2023/04/04 06:43:59;;;;;;;4.32;1.98;;;18.10;57.50;;;;;;5093070;28;20230;-59
2023/04/04 06:46:26;;;;;;;2.22;1.73;;;18.40;54.50;;;;;;5092812;28;20596;-60
2023/04/04 06:48:53;;;;;;;3.80;2.20;;;18.20;52.20;;;;;;5094449;28;20729;-60
2023/04/04 06:51:22;;;;;;;3.20;1.70;;;17.40;52.40;;;;;;5093268;28;20695;-60
2023/04/04 06:53:48;;;;;;;3.72;1.90;;;16.40;54.80;;;;;;5093161;28;20287;-60
2023/04/04 06:56:15;;;;;;;3.65;2.00;;;16.20;55.60;;;;;;5096447;28;20211;-59
2023/04/04 06:58:42;;;;;;;3.17;1.92;;;16.40;53.90;;;;;;5096852;28;20224;-60
2023/04/04 07:01:09;;;;;;;2.37;1.60;;;16.70;53.30;;;;;;5097012;28;20204;-62
2023/04/04 07:03:36;;;;;;;2.83;1.90;;;16.50;51.90;;;;;;5096378;28;20261;-60
2023/04/04 07:06:03;;;;;;;3.93;1.40;;;15.90;52.80;;;;;;5096804;28;20204;-59
2023/04/04 07:08:32;;;;;;;3.70;2.00;;;16.00;52.90;;;;;;5096857;28;20224;-59
2023/04/04 07:10:59;;;;;;;4.53;2.33;;;16.10;52.20;;;;;;5096755;28;20231;-59
2023/04/04 07:13:26;;;;;;;2.03;1.60;;;15.80;51.90;;;;;;5097125;28;20242;-60
2023/04/04 07:15:53;;;;;;;4.10;1.90;;;15.30;52.30;;;;;;5097029;28;20235;-59
2023/04/04 07:18:20;;;;;;;3.00;1.80;;;14.70;53.10;;;;;;5096521;28;20227;-59
2023/04/04 07:20:47;;;;;;;4.07;1.90;;;14.20;53.70;;;;;;5097254;28;20212;-59
2023/04/04 07:23:15;;;;;;;2.83;1.80;;;14.30;54.40;;;;;;5096752;28;20208;-59
2023/04/04 07:25:43;;;;;;;2.40;1.63;;;14.60;53.40;;;;;;5097082;28;20607;-60
2023/04/04 07:28:10;;;;;;;3.90;2.03;;;15.10;53.30;;;;;;5096777;28;20228;-59
2023/04/04 07:30:37;;;;;;;4.63;1.90;;;15.70;52.40;;;;;;5096640;28;20711;-59
2023/04/04 07:33:04;;;;;;;3.90;1.80;;;16.10;52.40;;;;;;5097362;28;20304;-60
2023/04/04 07:35:31;;;;;;;3.13;1.80;;;16.60;50.50;;;;;;5097821;28;20730;-59
2023/04/04 07:37:58;;;;;;;4.82;2.05;;;16.50;50.30;;;;;;5096956;28;20224;-59
2023/04/04 07:40:26;;;;;;;3.63;1.70;;;16.10;50.50;;;;;;5096249;28;20204;-59
2023/04/04 07:42:54;;;;;;;2.53;1.60;;;16.20;50.50;;;;;;5095981;28;20680;-60
2023/04/04 07:45:21;;;;;;;2.90;1.70;;;16.50;49.80;;;;;;5096360;28;20301;-58
2023/04/04 07:47:48;;;;;;;4.07;1.55;;;16.30;49.70;;;;;;5095514;28;20231;-59
2023/04/04 07:50:15;;;;;;;3.10;1.80;;;16.20;49.70;;;;;;5095722;28;20203;-59
2023/04/04 07:52:42;;;;;;;3.60;2.13;;;16.20;49.60;;;;;;5096186;28;20204;-59
2023/04/04 07:55:09;;;;;;;3.70;1.73;;;15.90;50.10;;;;;;5096316;28;20197;-59
2023/04/04 07:57:38;;;;;;;3.30;1.90;;;15.60;50.40;;;;;;5095202;28;20764;-59
2023/04/04 08:00:09;;;;;;;2.20;1.63;;;15.50;50.00;;;;;;5095586;28;20200;-59
2023/04/04 08:02:36;;;;;;;3.10;1.80;;;15.50;50.10;;;;;;5096302;28;20242;-59
2023/04/04 08:05:03;;;;;;;3.63;1.80;;;15.60;50.40;;;;;;5095137;28;20227;-59
2023/04/04 08:07:30;;;;;;;2.77;1.70;;;15.50;50.00;;;;;;5094819;28;20625;-59
2023/04/04 08:09:57;;;;;;;3.57;2.00;;;15.20;50.40;;;;;;5095910;28;20565;-59
2023/04/04 08:12:24;;;;;;;2.60;1.73;;;13.70;51.70;;;;;;5095926;28;20695;-59
2023/04/04 08:14:52;;;;;;;2.20;1.60;;;11.50;54.50;;;;;;5096605;28;20201;-59
2023/04/04 08:17:20;;;;;;;6.40;2.00;;;10.00;57.20;;;;;;5095858;28;20231;-58
2023/04/04 08:19:46;;;;;;;6.23;2.27;;;8.80;61.40;;;;;;5096333;28;20576;-59
2023/04/04 08:22:13;;;;;;;3.87;1.90;;;7.90;64.10;;;;;;5096313;28;20204;-59
2023/04/04 08:24:40;;;;;;;8.20;2.20;;;7.40;65.70;;;;;;5095467;28;20231;-58
2023/04/04 08:27:06;;;;;;;2.73;1.80;;;7.00;67.90;;;;;;5095897;28;20243;-57
2023/04/04 08:29:34;;;;;;;3.57;1.83;;;6.70;68.80;;;;;;5095072;28;20205;-58
2023/04/04 08:32:01;;;;;;;3.63;2.00;;;6.60;69.40;;;;;;5095527;28;20200;-57
2023/04/04 08:34:29;;;;;;;4.33;1.83;;;6.50;69.60;;;;;;5094837;28;20197;-57
2023/04/04 08:36:56;;;;;;;2.43;1.77;;;6.50;69.90;;;;;;5094802;28;20231;-57
2023/04/04 08:39:23;;;;;;;3.47;2.07;;;6.40;71.20;;;;;;5094901;28;20211;-57
2023/04/04 08:41:57;;;;;;;4.73;2.00;;;6.30;71.10;;;;;;5095953;28;20208;-57
2023/04/04 08:44:26;;;;;;;3.60;1.90;;;6.30;72.10;;;;;;5094628;28;20278;-59
2023/04/04 08:46:54;;;;;;;3.77;2.00;;;6.20;71.20;;;;;;5094786;28;20224;-59
2023/04/04 08:49:23;;;;;;;5.50;2.03;;;6.20;71.80;;;;;;5094118;28;20624;-58
2023/04/04 08:51:52;;;;;;;2.97;1.73;;;6.10;71.10;;;;;;5094028;28;20200;-58
2023/04/04 08:54:21;;;;;;;5.20;2.17;;;6.10;71.70;;;;;;5093898;28;20196;-58
2023/04/04 08:56:48;;;;;;;4.80;2.27;;;6.30;72.10;;;;;;5093788;28;20235;-59
2023/04/04 08:59:17;;;;;;;3.90;2.00;;;6.40;71.10;;;;;;5093573;28;20631;-58
2023/04/04 09:01:44;;;;;;;2.97;1.73;;;6.40;71.30;;;;;;5093340;28;20228;-58
2023/04/04 09:04:11;;;;;;;3.53;2.30;;;6.60;71.50;;;;;;5093011;28;20204;-59
2023/04/04 09:06:38;;;;;;;8.40;4.70;;;6.90;72.00;;;;;;5093075;28;20571;-58
2023/04/04 09:09:07;;;;;;;3.17;2.07;;;7.20;71.20;;;;;;5093207;28;20205;-58
2023/04/04 09:11:35;;;;;;;7.97;3.27;;;7.60;70.90;;;;;;5093381;28;20208;-59
2023/04/04 09:14:03;;;;;;;3.93;2.47;;;7.90;69.10;;;;;;5092799;28;20266;-57
2023/04/04 09:16:31;;;;;;;8.27;2.30;;;7.90;68.10;;;;;;5092786;28;20238;-58
2023/04/04 09:18:57;;;;;;;2.97;1.83;;;7.70;67.00;;;;;;5092587;28;20204;-58
2023/04/04 09:21:25;;;;;;;4.17;2.07;;;7.60;67.30;;;;;;5093229;28;20211;-58
2023/04/04 09:23:59;;;;;;;5.07;1.97;;;7.50;68.50;;;;;;5092764;28;20207;-58
2023/04/04 09:26:27;;;;;;;3.40;2.57;;;7.50;68.90;;;;;;5092426;28;20228;-58
2023/04/04 09:28:54;;;;;;;7.97;3.23;;;7.40;68.80;;;;;;5093105;28;20204;-58
2023/04/04 09:31:21;;;;;;;6.00;2.87;;;7.20;70.30;;;;;;5092757;28;20295;-58
2023/04/04 09:33:49;;;;;;;8.63;4.63;;;7.20;69.80;;;;;;5093113;28;20506;-58
2023/04/04 09:36:16;;;;;;;3.60;2.30;;;7.30;69.90;;;;;;5092880;28;20293;-58
2023/04/04 09:38:44;;;;;;;3.50;2.43;;;7.40;69.40;;;;;;5092577;28;20227;-58
2023/04/04 09:41:14;;;;;;;2.93;1.90;;;7.50;69.40;;;;;;5092937;28;20210;-60
2023/04/04 09:43:45;;;;;;;3.20;2.03;;;7.50;69.80;;;;;;5093131;28;20309;-54
2023/04/04 09:46:12;;;;;;;3.10;2.20;;;7.50;70.20;;;;;;5092505;28;20227;-57
2023/04/04 09:48:39;;;;;;;2.57;2.30;;;7.50;68.80;;;;;;5092811;28;20227;-54
2023/04/04 09:51:07;;;;;;;4.10;1.90;;;7.60;70.50;;;;;;5093107;28;20647;-52
2023/04/04 09:53:36;;;;;;;5.47;2.13;;;7.80;69.40;;;;;;5092469;28;20200;-53
2023/04/04 09:56:03;;;;;;;3.60;1.90;;;8.10;68.70;;;;;;5092435;28;20303;-54
2023/04/04 09:58:34;;;;;;;7.23;2.23;;;8.50;67.90;;;;;;5092439;28;20307;-55
2023/04/04 10:01:05;;;;;;;3.93;2.20;;;9.00;68.50;;;;;;5092365;28;20682;-54
2023/04/04 10:03:32;;;;;;;7.10;1.80;;;9.20;67.30;;;;;;5094418;28;20564;-65
2023/04/04 10:06:04;;;;;;;3.57;1.80;;;9.20;68.20;;;;;;5093083;28;20612;-57
2023/04/04 10:08:32;;;;;;;3.33;2.03;;;9.10;65.30;;;;;;5092362;28;20223;-56
2023/04/04 10:11:00;;;;;;;3.67;2.07;;;8.90;65.10;;;;;;5092482;28;20208;-58
2023/04/04 10:13:28;;;;;;;3.93;2.20;;;8.60;64.40;;;;;;5092309;28;20200;-57
2023/04/04 10:15:56;;;;;;;3.43;2.20;;;8.40;64.60;;;;;;5092417;28;20200;-57
2023/04/04 10:18:26;;;;;;;3.33;2.33;;;8.20;65.50;;;;;;5092405;28;20246;-57
2023/04/04 10:20:54;;;;;;;2.83;1.97;;;8.00;66.90;;;;;;5092779;28;20212;-57
2023/04/04 10:23:24;;;;;;;4.07;2.20;;;8.10;67.90;;;;;;5092424;28;20290;-57
2023/04/04 10:25:51;;;;;;;2.27;1.90;;;8.20;68.00;;;;;;5092351;28;20595;-57
2023/04/04 10:28:19;;;;;;;4.93;2.10;;;8.30;66.20;;;;;;5092279;28;20655;-57
2023/04/04 10:30:50;;;;;;;2.63;1.70;;;8.20;66.30;;;;;;5094503;28;20219;-57
2023/04/04 10:33:23;;;;;;;3.50;2.13;;;8.20;66.30;;;;;;5096531;28;20279;-56
2023/04/04 10:35:54;;;;;;;3.80;2.20;;;8.20;66.60;;;;;;5095995;28;20570;-57
2023/04/04 10:38:24;;;;;;;3.43;2.10;;;8.00;66.80;;;;;;5096591;28;20228;-58
2023/04/04 10:40:53;;;;;;;3.97;2.30;;;8.00;67.50;;;;;;5095741;28;20687;-57
2023/04/04 10:43:25;;;;;;;2.20;1.90;;;8.00;67.40;;;;;;5095663;28;20253;-56
2023/04/04 10:45:52;;;;;;;2.77;2.00;;;8.00;67.80;;;;;;5095702;28;20796;-57
2023/04/04 10:48:21;;;;;;;2.90;2.07;;;8.00;66.50;;;;;;5095714;28;20232;-58
2023/04/04 10:50:49;;;;;;;2.63;2.00;;;8.10;68.00;;;;;;5095802;28;20282;-57
2023/04/04 10:53:18;;;;;;;3.13;1.97;;;8.30;67.20;;;;;;5095712;28;20204;-57
2023/04/04 10:55:45;;;;;;;3.47;2.20;;;8.50;67.60;;;;;;5095627;28;20207;-56
2023/04/04 10:58:12;;;;;;;4.63;2.20;;;8.50;66.80;;;;;;5095369;28;20273;-56
2023/04/04 11:00:51;;;;;;;2.10;1.73;;;8.50;66.60;;;;;;5096193;28;20204;-56
2023/04/04 11:03:18;;;;;;;4.40;1.90;;;8.50;65.90;;;;;;5095380;28;20628;-56
2023/04/04 11:05:47;;;;;;;3.50;1.83;;;8.60;66.10;;;;;;5095937;28;20220;-58
2023/04/04 11:08:18;;;;;;;3.47;2.03;;;8.70;66.40;;;;;;5095787;28;20228;-57
2023/04/04 11:10:47;;;;;;;2.37;1.67;;;8.80;67.20;;;;;;5095767;28;20587;-57
2023/04/04 11:13:17;;;;;;;3.90;2.20;;;8.80;66.80;;;;;;5095603;28;20571;-58
2023/04/04 11:15:53;;;;;;;3.30;2.00;;;8.60;66.60;;;;;;5095478;28;20270;-58
2023/04/04 11:18:22;;;;;;;2.72;1.83;;;8.60;66.50;;;;;;5092698;28;20452;-65
2023/04/04 11:20:50;;;;;;;3.13;1.80;;;8.70;66.20;;;;;;5094268;28;20265;-60
2023/04/04 11:23:20;;;;;;;3.70;1.90;;;8.80;65.00;;;;;;5093982;28;20699;-61
2023/04/04 11:25:51;;;;;;;4.27;1.90;;;9.00;65.60;;;;;;5094578;28;20220;-61
2023/04/04 11:28:43;;;;;;;2.67;2.00;;;9.00;66.00;;;;;;5094316;28;20223;-61
2023/04/04 11:31:24;;;;;;;3.10;2.30;;;9.20;65.40;;;;;;5094197;28;20285;-58
2023/04/04 11:33:59;;;;;;;2.27;1.80;;;9.30;65.60;;;;;;5094275;28;20204;-62
2023/04/04 11:36:49;;;;;;;2.73;1.97;;;9.40;65.10;;;;;;5094025;28;20715;-58
2023/04/04 11:39:24;;;;;;;4.00;2.10;;;9.40;66.00;;;;;;5094312;28;20269;-60
2023/04/04 11:41:54;;;;;;;3.53;1.83;;;9.60;66.10;;;;;;5092597;28;20317;-59
2023/04/04 11:44:22;;;;;;;3.80;2.20;;;9.60;64.40;;;;;;5093893;28;20291;-61
2023/04/04 11:46:54;;;;;;;3.87;2.10;;;9.50;64.70;;;;;;5093378;28;20609;-61
2023/04/04 11:49:26;;;;;;;2.10;1.77;;;9.40;63.90;;;;;;5093864;28;20875;-60
2023/04/04 11:51:53;;;;;;;3.13;1.93;;;9.30;65.40;;;;;;5094358;28;20212;-61
2023/04/04 11:54:21;;;;;;;3.37;1.73;;;9.30;65.40;;;;;;5093545;28;20863;-60
2023/04/04 11:56:48;;;;;;;3.90;2.40;;;9.30;65.40;;;;;;5093732;28;20228;-60
2023/04/04 11:59:19;;;;;;;2.77;1.93;;;9.40;66.20;;;;;;5093898;28;20207;-59
2023/04/04 12:01:46;;;;;;;3.03;2.20;;;9.50;65.60;;;;;;5093499;28;20296;-59
2023/04/04 12:04:17;;;;;;;4.43;2.13;;;9.50;66.70;;;;;;5093538;28;20211;-60
2023/04/04 12:06:44;;;;;;;3.30;2.03;;;9.60;64.70;;;;;;5093111;28;20298;-60
2023/04/04 12:09:16;;;;;;;6.23;2.03;;;9.60;64.20;;;;;;5093547;28;20223;-60
2023/04/04 12:11:45;;;;;;;3.97;1.80;;;9.50;65.00;;;;;;5093034;28;20245;-61
2023/04/04 12:14:17;;;;;;;3.17;1.80;;;9.50;64.20;;;;;;5095068;28;20204;-59
2023/04/04 12:16:44;;;;;;;2.53;1.77;;;9.50;65.10;;;;;;5094182;28;20226;-59
2023/04/04 12:19:11;;;;;;;3.77;2.03;;;9.60;65.10;;;;;;5094452;28;20206;-58
2023/04/04 12:21:39;;;;;;;3.03;1.90;;;9.70;63.70;;;;;;5094448;28;20214;-59
2023/04/04 12:24:07;;;;;;;3.17;1.70;;;9.60;64.10;;;;;;5094070;28;20208;-56
2023/04/04 12:26:35;;;;;;;3.30;2.00;;;9.60;64.30;;;;;;5093570;28;20266;-55
2023/04/04 12:29:04;;;;;;;2.90;1.87;;;9.50;63.20;;;;;;5093977;28;20208;-55
2023/04/04 12:31:32;;;;;;;2.60;1.80;;;9.30;62.70;;;;;;5094112;28;20239;-56
2023/04/04 12:34:00;;;;;;;3.03;2.07;;;9.20;63.40;;;;;;5093658;28;20208;-56
2023/04/04 12:36:26;;;;;;;4.10;2.17;;;9.30;64.90;;;;;;5093758;28;20209;-56
2023/04/04 12:38:59;;;;;;;5.23;3.20;;;9.50;64.20;;;;;;5094047;28;20211;-57
2023/04/04 12:41:26;;;;;;;4.47;1.67;;;9.70;63.60;;;;;;5093811;28;20204;-55
2023/04/04 12:44:01;;;;;;;6.37;2.60;;;9.80;62.10;;;;;;5093436;28;20228;-55
2023/04/04 12:46:37;;;;;;;2.40;1.73;;;9.70;63.00;;;;;;5093402;28;20729;-55
2023/04/04 12:49:06;;;;;;;4.73;1.93;;;9.80;63.80;;;;;;5093584;28;20301;-55
2023/04/04 12:51:33;;;;;;;3.57;2.03;;;10.00;62.60;;;;;;5093457;28;20211;-55
2023/04/04 12:54:00;;;;;;;2.60;1.87;;;10.10;61.90;;;;;;5092603;28;20240;-56
2023/04/04 12:56:27;;;;;;;2.90;2.03;;;10.10;61.40;;;;;;5093413;28;20205;-56
2023/04/04 12:58:59;;;;;;;3.70;1.80;;;10.00;63.60;;;;;;5093293;28;20286;-56